EFKE/KEM METAR and TAF weather

Enter ICAO airport designator
Station Type Date Time Source
EFKE METAR 2020/07/09 08:50 UTC NOAA

EFKE 090850Z AUTO 20007KT 150V250 CAVOK 17/11 Q1005


Station Type Date Time Source
EFKE Decoded METAR 2020/07/09 08:50 UTC NOAA

Kemi, Finland (EFKE) 65-47N 024-35E
Jul 09, 2020 - 04:50 AM EDT / 2020.07.09 0850 UTC
Wind: from the SSW (200 degrees) at 8 MPH (7 KT) (direction variable):0
Visibility: greater than 7 mile(s):0
Temperature: 62 F (17 C)
Dew Point: 51 F (11 C)
Relative Humidity: 67%
Pressure (altimeter): 29.68 in. Hg (1005 hPa)
ob: EFKE 090850Z AUTO 20007KT 150V250 CAVOK 17/11 Q1005
cycle: 9

Station Type Date Time Source
EFKE TAF 2015/01/12 15:42 UTC NOAA

TAF EFKE 121433Z 1215/1312 03006KT CAVOK
BECMG 1300/1302 9999 BKN015
FM130400 07008KT 9999 SCT014 BKN018
TEMPO 1304/1312 7000 -SN

Example: see airport list